sensor_id;sensor_type;location;lat;lon;timestamp;pressure;altitude;pressure_sealevel;temperature;humidity
63395;BME280;49531;-34.520;150.798;2024-02-23T00:02:01;99694.94;;;28.98;50.04
63395;BME280;49531;-34.520;150.798;2024-02-23T00:04:28;99685.53;;;28.99;50.39
63395;BME280;49531;-34.520;150.798;2024-02-23T00:06:56;99702.28;;;29.06;49.99
63395;BME280;49531;-34.520;150.798;2024-02-23T00:09:23;99684.63;;;29.07;50.22
63395;BME280;49531;-34.520;150.798;2024-02-23T00:11:50;99700.13;;;29.12;50.27
63395;BME280;49531;-34.520;150.798;2024-02-23T00:14:17;99699.88;;;29.17;49.78
63395;BME280;49531;-34.520;150.798;2024-02-23T00:16:47;99707.41;;;29.20;49.77
63395;BME280;49531;-34.520;150.798;2024-02-23T00:19:15;99704.78;;;29.24;49.45
63395;BME280;49531;-34.520;150.798;2024-02-23T00:21:44;99698.25;;;29.28;49.56
63395;BME280;49531;-34.520;150.798;2024-02-23T00:24:16;99695.63;;;29.32;49.43
63395;BME280;49531;-34.520;150.798;2024-02-23T00:26:44;99691.72;;;29.33;49.13
63395;BME280;49531;-34.520;150.798;2024-02-23T00:29:11;99698.38;;;29.32;49.14
63395;BME280;49531;-34.520;150.798;2024-02-23T00:31:39;99691.50;;;29.38;49.03
63395;BME280;49531;-34.520;150.798;2024-02-23T00:34:11;99690.25;;;29.47;49.16
63395;BME280;49531;-34.520;150.798;2024-02-23T00:36:40;99695.19;;;29.54;49.26
63395;BME280;49531;-34.520;150.798;2024-02-23T00:39:08;99691.75;;;29.57;49.38
63395;BME280;49531;-34.520;150.798;2024-02-23T00:41:36;99697.91;;;29.66;48.91
63395;BME280;49531;-34.520;150.798;2024-02-23T00:44:03;99701.91;;;29.69;48.95
63395;BME280;49531;-34.520;150.798;2024-02-23T00:46:30;99715.09;;;29.75;49.09
63395;BME280;49531;-34.520;150.798;2024-02-23T00:48:58;99695.81;;;29.75;48.96
63395;BME280;49531;-34.520;150.798;2024-02-23T00:51:25;99692.03;;;29.80;48.82
63395;BME280;49531;-34.520;150.798;2024-02-23T00:53:52;99698.91;;;29.86;48.76
63395;BME280;49531;-34.520;150.798;2024-02-23T00:56:20;99686.16;;;29.94;48.77
63395;BME280;49531;-34.520;150.798;2024-02-23T00:58:47;99688.31;;;30.00;48.52
63395;BME280;49531;-34.520;150.798;2024-02-23T01:01:14;99692.31;;;30.03;48.48
63395;BME280;49531;-34.520;150.798;2024-02-23T01:03:41;99679.44;;;30.07;48.10
63395;BME280;49531;-34.520;150.798;2024-02-23T01:06:08;99676.00;;;30.10;48.13
63395;BME280;49531;-34.520;150.798;2024-02-23T01:08:35;99681.16;;;30.11;47.55
63395;BME280;49531;-34.520;150.798;2024-02-23T01:11:02;99671.50;;;30.17;47.78
63395;BME280;49531;-34.520;150.798;2024-02-23T01:13:30;99673.75;;;30.28;47.66
63395;BME280;49531;-34.520;150.798;2024-02-23T01:15:57;99656.88;;;30.29;47.53
63395;BME280;49531;-34.520;150.798;2024-02-23T01:18:24;99675.56;;;30.36;47.07
63395;BME280;49531;-34.520;150.798;2024-02-23T01:20:51;99663.91;;;30.42;47.08
63395;BME280;49531;-34.520;150.798;2024-02-23T01:23:18;99657.31;;;30.47;46.91
63395;BME280;49531;-34.520;150.798;2024-02-23T01:25:45;99645.16;;;30.48;47.01
63395;BME280;49531;-34.520;150.798;2024-02-23T01:28:12;99645.94;;;30.48;47.04
63395;BME280;49531;-34.520;150.798;2024-02-23T01:30:39;99653.16;;;30.53;47.42
63395;BME280;49531;-34.520;150.798;2024-02-23T01:33:06;99647.06;;;30.60;47.10
63395;BME280;49531;-34.520;150.798;2024-02-23T01:35:34;99639.25;;;30.62;46.95
63395;BME280;49531;-34.520;150.798;2024-02-23T01:38:03;99634.09;;;30.60;46.83
63395;BME280;49531;-34.520;150.798;2024-02-23T01:40:30;99644.94;;;30.69;46.40
63395;BME280;49531;-34.520;150.798;2024-02-23T01:43:04;99632.94;;;30.77;45.06
63395;BME280;49531;-34.520;150.798;2024-02-23T01:45:32;99622.94;;;31.04;42.80
63395;BME280;49531;-34.520;150.798;2024-02-23T01:48:00;99628.97;;;31.25;42.39
63395;BME280;49531;-34.520;150.798;2024-02-23T01:50:28;99628.56;;;31.42;42.24
63395;BME280;49531;-34.520;150.798;2024-02-23T01:53:00;99615.81;;;31.54;41.77
63395;BME280;49531;-34.520;150.798;2024-02-23T01:55:28;99601.94;;;31.50;41.67
63395;BME280;49531;-34.520;150.798;2024-02-23T01:57:56;99609.84;;;31.52;42.64
63395;BME280;49531;-34.520;150.798;2024-02-23T02:00:23;99619.44;;;31.58;42.60
63395;BME280;49531;-34.520;150.798;2024-02-23T02:02:50;99609.25;;;31.62;41.96
63395;BME280;49531;-34.520;150.798;2024-02-23T02:05:18;99605.34;;;31.63;42.29
63395;BME280;49531;-34.520;150.798;2024-02-23T02:07:45;99592.78;;;31.65;42.35
63395;BME280;49531;-34.520;150.798;2024-02-23T02:10:15;99588.50;;;31.68;42.30
63395;BME280;49531;-34.520;150.798;2024-02-23T02:12:42;99590.56;;;31.71;41.83
63395;BME280;49531;-34.520;150.798;2024-02-23T02:15:09;99592.50;;;31.70;42.52
63395;BME280;49531;-34.520;150.798;2024-02-23T02:17:36;99580.66;;;31.70;42.29
63395;BME280;49531;-34.520;150.798;2024-02-23T02:20:04;99578.78;;;31.74;41.89
63395;BME280;49531;-34.520;150.798;2024-02-23T02:22:34;99564.59;;;31.75;42.24
63395;BME280;49531;-34.520;150.798;2024-02-23T02:25:01;99551.91;;;31.71;42.16
63395;BME280;49531;-34.520;150.798;2024-02-23T02:27:28;99562.78;;;31.83;41.95
63395;BME280;49531;-34.520;150.798;2024-02-23T02:29:55;99558.44;;;31.82;41.82
63395;BME280;49531;-34.520;150.798;2024-02-23T02:32:24;99563.28;;;31.89;41.69
63395;BME280;49531;-34.520;150.798;2024-02-23T02:34:51;99568.22;;;31.99;41.78
63395;BME280;49531;-34.520;150.798;2024-02-23T02:37:18;99570.22;;;32.02;41.76
63395;BME280;49531;-34.520;150.798;2024-02-23T02:39:45;99572.56;;;32.00;41.83
63395;BME280;49531;-34.520;150.798;2024-02-23T02:42:12;99551.41;;;32.07;41.62
63395;BME280;49531;-34.520;150.798;2024-02-23T02:44:39;99555.38;;;32.10;41.96
63395;BME280;49531;-34.520;150.798;2024-02-23T02:47:08;99553.34;;;32.07;42.11
63395;BME280;49531;-34.520;150.798;2024-02-23T02:49:35;99540.84;;;32.13;41.37
63395;BME280;49531;-34.520;150.798;2024-02-23T02:52:02;99526.56;;;32.30;39.59
63395;BME280;49531;-34.520;150.798;2024-02-23T02:54:30;99531.38;;;32.33;40.56
63395;BME280;49531;-34.520;150.798;2024-02-23T02:56:57;99521.47;;;32.32;40.53
63395;BME280;49531;-34.520;150.798;2024-02-23T02:59:24;99519.56;;;32.36;40.97
63395;BME280;49531;-34.520;150.798;2024-02-23T03:01:51;99516.47;;;32.41;40.93
63395;BME280;49531;-34.520;150.798;2024-02-23T03:04:19;99496.28;;;32.37;41.34
63395;BME280;49531;-34.520;150.798;2024-02-23T03:06:46;99494.78;;;32.43;41.10
63395;BME280;49531;-34.520;150.798;2024-02-23T03:09:13;99487.28;;;32.44;41.14
63395;BME280;49531;-34.520;150.798;2024-02-23T03:11:40;99487.78;;;32.49;41.32
63395;BME280;49531;-34.520;150.798;2024-02-23T03:14:08;99488.50;;;32.46;41.15
63395;BME280;49531;-34.520;150.798;2024-02-23T03:16:36;99486.22;;;32.52;41.10
63395;BME280;49531;-34.520;150.798;2024-02-23T03:19:04;99490.66;;;32.57;41.26
63395;BME280;49531;-34.520;150.798;2024-02-23T03:21:31;99478.00;;;32.56;41.00
63395;BME280;49531;-34.520;150.798;2024-02-23T03:23:58;99477.63;;;32.57;41.02
63395;BME280;49531;-34.520;150.798;2024-02-23T03:26:29;99482.03;;;32.62;41.27
63395;BME280;49531;-34.520;150.798;2024-02-23T03:28:56;99471.31;;;32.57;41.10
63395;BME280;49531;-34.520;150.798;2024-02-23T03:31:23;99480.19;;;32.69;40.67
63395;BME280;49531;-34.520;150.798;2024-02-23T03:33:50;99475.44;;;32.70;40.95
63395;BME280;49531;-34.520;150.798;2024-02-23T03:36:18;99476.25;;;32.70;41.00
63395;BME280;49531;-34.520;150.798;2024-02-23T03:38:45;99465.88;;;32.64;40.65
63395;BME280;49531;-34.520;150.798;2024-02-23T03:41:12;99536.44;;;32.77;41.04
63395;BME280;49531;-34.520;150.798;2024-02-23T03:43:39;99583.91;;;32.83;40.91
63395;BME280;49531;-34.520;150.798;2024-02-23T03:46:06;99589.59;;;32.93;41.01
63395;BME280;49531;-34.520;150.798;2024-02-23T03:48:33;99583.38;;;33.00;40.95
63395;BME280;49531;-34.520;150.798;2024-02-23T03:51:03;99577.84;;;33.00;40.43
63395;BME280;49531;-34.520;150.798;2024-02-23T03:53:31;99594.38;;;32.96;39.91
63395;BME280;49531;-34.520;150.798;2024-02-23T03:55:58;99592.78;;;32.95;39.54
63395;BME280;49531;-34.520;150.798;2024-02-23T03:58:25;99600.66;;;32.93;40.01
63395;BME280;49531;-34.520;150.798;2024-02-23T04:00:52;99606.09;;;32.86;41.30
63395;BME280;49531;-34.520;150.798;2024-02-23T04:03:20;99620.34;;;32.88;45.31
63395;BME280;49531;-34.520;150.798;2024-02-23T04:05:47;99607.63;;;32.84;46.59
63395;BME280;49531;-34.520;150.798;2024-02-23T04:08:14;99607.13;;;32.55;46.64
63395;BME280;49531;-34.520;150.798;2024-02-23T04:10:41;99646.44;;;32.45;47.39
63395;BME280;49531;-34.520;150.798;2024-02-23T04:13:08;99643.88;;;32.33;48.08
63395;BME280;49531;-34.520;150.798;2024-02-23T04:15:36;99647.31;;;32.26;48.79
63395;BME280;49531;-34.520;150.798;2024-02-23T04:18:04;99630.72;;;32.07;48.44
63395;BME280;49531;-34.520;150.798;2024-02-23T04:20:31;99639.81;;;32.07;44.94
63395;BME280;49531;-34.520;150.798;2024-02-23T04:22:59;99621.47;;;31.99;46.72
63395;BME280;49531;-34.520;150.798;2024-02-23T04:25:26;99610.59;;;31.87;46.38
63395;BME280;49531;-34.520;150.798;2024-02-23T04:27:53;99627.97;;;31.88;47.04
63395;BME280;49531;-34.520;150.798;2024-02-23T04:30:20;99620.84;;;31.87;47.15
63395;BME280;49531;-34.520;150.798;2024-02-23T04:32:48;99582.00;;;31.60;48.04
63395;BME280;49531;-34.520;150.798;2024-02-23T04:35:15;99551.81;;;31.48;50.03
63395;BME280;49531;-34.520;150.798;2024-02-23T04:37:45;99540.69;;;31.44;49.85
63395;BME280;49531;-34.520;150.798;2024-02-23T04:40:12;99529.00;;;31.32;49.91
63395;BME280;49531;-34.520;150.798;2024-02-23T04:42:40;99543.66;;;31.36;49.84
63395;BME280;49531;-34.520;150.798;2024-02-23T04:45:08;99599.94;;;31.31;50.30
63395;BME280;49531;-34.520;150.798;2024-02-23T04:47:35;99620.63;;;31.06;51.29
63395;BME280;49531;-34.520;150.798;2024-02-23T04:50:06;99593.09;;;30.74;52.53
63395;BME280;49531;-34.520;150.798;2024-02-23T04:52:33;99591.91;;;30.91;54.39
63395;BME280;49531;-34.520;150.798;2024-02-23T04:55:01;99597.06;;;30.93;53.88
63395;BME280;49531;-34.520;150.798;2024-02-23T04:57:28;99611.56;;;30.90;52.89
63395;BME280;49531;-34.520;150.798;2024-02-23T04:59:55;99616.09;;;30.82;53.34
63395;BME280;49531;-34.520;150.798;2024-02-23T05:02:22;99606.78;;;30.71;53.96
63395;BME280;49531;-34.520;150.798;2024-02-23T05:04:49;99595.06;;;30.58;54.55
63395;BME280;49531;-34.520;150.798;2024-02-23T05:07:17;99605.06;;;30.50;55.27
63395;BME280;49531;-34.520;150.798;2024-02-23T05:09:44;99609.34;;;30.32;54.20
63395;BME280;49531;-34.520;150.798;2024-02-23T05:12:11;99625.59;;;30.37;54.74
63395;BME280;49531;-34.520;150.798;2024-02-23T05:14:38;99627.38;;;30.30;54.34
63395;BME280;49531;-34.520;150.798;2024-02-23T05:17:05;99632.59;;;30.19;55.14
63395;BME280;49531;-34.520;150.798;2024-02-23T05:19:32;99623.56;;;30.06;55.45
63395;BME280;49531;-34.520;150.798;2024-02-23T05:21:59;99620.72;;;30.03;55.76
63395;BME280;49531;-34.520;150.798;2024-02-23T05:24:27;99620.97;;;29.98;56.56
63395;BME280;49531;-34.520;150.798;2024-02-23T05:26:54;99629.94;;;29.95;56.50
63395;BME280;49531;-34.520;150.798;2024-02-23T05:29:21;99664.91;;;29.94;55.43
63395;BME280;49531;-34.520;150.798;2024-02-23T05:31:51;99703.25;;;29.87;56.50
63395;BME280;49531;-34.520;150.798;2024-02-23T05:34:19;99743.06;;;29.90;56.99
63395;BME280;49531;-34.520;150.798;2024-02-23T05:36:47;99749.59;;;29.97;57.86
63395;BME280;49531;-34.520;150.798;2024-02-23T05:39:15;99768.88;;;29.97;58.04
63395;BME280;49531;-34.520;150.798;2024-02-23T05:41:44;99785.75;;;29.83;57.63
63395;BME280;49531;-34.520;150.798;2024-02-23T05:44:11;99761.63;;;29.93;58.32
63395;BME280;49531;-34.520;150.798;2024-02-23T05:46:39;99707.16;;;29.86;59.08
63395;BME280;49531;-34.520;150.798;2024-02-23T05:49:06;99660.25;;;29.82;60.09
63395;BME280;49531;-34.520;150.798;2024-02-23T05:51:33;99621.75;;;29.70;59.34
63395;BME280;49531;-34.520;150.798;2024-02-23T05:54:01;99573.81;;;29.71;59.23
63395;BME280;49531;-34.520;150.798;2024-02-23T05:56:28;99572.31;;;29.74;58.13
63395;BME280;49531;-34.520;150.798;2024-02-23T05:58:55;99641.00;;;29.70;57.85
63395;BME280;49531;-34.520;150.798;2024-02-23T06:01:23;99694.56;;;29.61;58.58
63395;BME280;49531;-34.520;150.798;2024-02-23T06:03:50;99741.38;;;29.61;59.26
63395;BME280;49531;-34.520;150.798;2024-02-23T06:06:17;99778.66;;;29.58;58.53
63395;BME280;49531;-34.520;150.798;2024-02-23T06:08:45;99805.59;;;29.65;59.28
63395;BME280;49531;-34.520;150.798;2024-02-23T06:11:12;99808.94;;;29.58;58.69
63395;BME280;49531;-34.520;150.798;2024-02-23T06:13:39;99818.09;;;29.50;58.80
63395;BME280;49531;-34.520;150.798;2024-02-23T06:16:15;99799.97;;;29.49;59.02
63395;BME280;49531;-34.520;150.798;2024-02-23T06:18:45;99754.13;;;29.53;58.95
63395;BME280;49531;-34.520;150.798;2024-02-23T06:21:13;99773.50;;;29.44;58.48
63395;BME280;49531;-34.520;150.798;2024-02-23T06:23:44;99757.41;;;29.34;59.20
63395;BME280;49531;-34.520;150.798;2024-02-23T06:26:11;99738.25;;;29.38;59.42
63395;BME280;49531;-34.520;150.798;2024-02-23T06:28:39;99745.81;;;29.29;60.52
63395;BME280;49531;-34.520;150.798;2024-02-23T06:31:10;99730.03;;;29.13;60.53
63395;BME280;49531;-34.520;150.798;2024-02-23T06:33:37;99739.63;;;29.19;60.12
63395;BME280;49531;-34.520;150.798;2024-02-23T06:36:05;99711.69;;;29.05;60.67
63395;BME280;49531;-34.520;150.798;2024-02-23T06:38:32;99720.03;;;29.21;60.75
63395;BME280;49531;-34.520;150.798;2024-02-23T06:40:59;99746.63;;;29.17;61.84
63395;BME280;49531;-34.520;150.798;2024-02-23T06:43:27;99783.53;;;29.16;61.33
63395;BME280;49531;-34.520;150.798;2024-02-23T06:45:54;99795.09;;;29.21;61.63
63395;BME280;49531;-34.520;150.798;2024-02-23T06:48:21;99747.44;;;29.17;61.63
63395;BME280;49531;-34.520;150.798;2024-02-23T06:50:48;99738.06;;;29.18;61.43
63395;BME280;49531;-34.520;150.798;2024-02-23T06:53:15;99739.19;;;29.05;61.36
63395;BME280;49531;-34.520;150.798;2024-02-23T06:55:42;99721.75;;;29.01;61.22
63395;BME280;49531;-34.520;150.798;2024-02-23T06:58:09;99704.00;;;28.99;61.40
63395;BME280;49531;-34.520;150.798;2024-02-23T07:00:36;99719.81;;;29.02;61.47
63395;BME280;49531;-34.520;150.798;2024-02-23T07:03:04;99711.69;;;29.05;62.66
63395;BME280;49531;-34.520;150.798;2024-02-23T07:05:33;99725.78;;;29.16;62.30
63395;BME280;49531;-34.520;150.798;2024-02-23T07:08:04;99732.06;;;29.29;61.75
63395;BME280;49531;-34.520;150.798;2024-02-23T07:10:31;99760.63;;;29.36;60.95
63395;BME280;49531;-34.520;150.798;2024-02-23T07:12:59;99790.13;;;29.48;60.19
63395;BME280;49531;-34.520;150.798;2024-02-23T07:15:26;99784.97;;;29.59;59.79
63395;BME280;49531;-34.520;150.798;2024-02-23T07:17:53;99785.84;;;29.63;59.63
63395;BME280;49531;-34.520;150.798;2024-02-23T07:20:22;99781.16;;;29.63;59.29
63395;BME280;49531;-34.520;150.798;2024-02-23T07:22:49;99769.47;;;29.66;59.09
63395;BME280;49531;-34.520;150.798;2024-02-23T07:25:17;99764.53;;;29.72;58.61
63395;BME280;49531;-34.520;150.798;2024-02-23T07:27:47;99758.91;;;29.80;58.23
63395;BME280;49531;-34.520;150.798;2024-02-23T07:30:17;99739.19;;;29.78;58.17
63395;BME280;49531;-34.520;150.798;2024-02-23T07:32:44;99776.69;;;29.83;57.94
63395;BME280;49531;-34.520;150.798;2024-02-23T07:35:13;99791.69;;;29.85;57.99
63395;BME280;49531;-34.520;150.798;2024-02-23T07:37:40;99782.75;;;29.89;57.67
63395;BME280;49531;-34.520;150.798;2024-02-23T07:40:08;99808.00;;;29.91;57.65
63395;BME280;49531;-34.520;150.798;2024-02-23T07:42:35;99809.47;;;29.88;57.44
63395;BME280;49531;-34.520;150.798;2024-02-23T07:45:06;99810.28;;;29.89;57.25
63395;BME280;49531;-34.520;150.798;2024-02-23T07:47:33;99832.31;;;29.89;57.31
63395;BME280;49531;-34.520;150.798;2024-02-23T07:50:00;99840.00;;;29.83;57.30
63395;BME280;49531;-34.520;150.798;2024-02-23T07:52:28;99827.84;;;29.84;56.98
63395;BME280;49531;-34.520;150.798;2024-02-23T07:54:55;99769.22;;;29.83;56.92
63395;BME280;49531;-34.520;150.798;2024-02-23T07:57:22;99804.66;;;29.85;56.91
63395;BME280;49531;-34.520;150.798;2024-02-23T07:59:49;99849.88;;;29.84;56.79
63395;BME280;49531;-34.520;150.798;2024-02-23T08:02:16;99918.69;;;29.84;56.98
63395;BME280;49531;-34.520;150.798;2024-02-23T08:04:43;99972.16;;;29.83;57.23
63395;BME280;49531;-34.520;150.798;2024-02-23T08:07:10;99959.63;;;29.73;57.26
63395;BME280;49531;-34.520;150.798;2024-02-23T08:09:37;99931.75;;;29.75;56.67
63395;BME280;49531;-34.520;150.798;2024-02-23T08:12:05;99924.63;;;29.74;56.74
63395;BME280;49531;-34.520;150.798;2024-02-23T08:14:32;99913.38;;;29.67;56.84
63395;BME280;49531;-34.520;150.798;2024-02-23T08:17:00;99928.06;;;29.71;56.63
63395;BME280;49531;-34.520;150.798;2024-02-23T08:19:27;99915.47;;;29.70;56.62
63395;BME280;49531;-34.520;150.798;2024-02-23T08:21:54;99931.28;;;29.73;56.75
63395;BME280;49531;-34.520;150.798;2024-02-23T08:24:21;99944.59;;;29.71;56.87
63395;BME280;49531;-34.520;150.798;2024-02-23T08:26:49;99933.56;;;29.71;56.82
63395;BME280;49531;-34.520;150.798;2024-02-23T08:29:16;99918.22;;;29.70;56.63
63395;BME280;49531;-34.520;150.798;2024-02-23T08:31:43;99913.50;;;29.70;56.71
63395;BME280;49531;-34.520;150.798;2024-02-23T08:34:10;99911.91;;;29.69;56.43
63395;BME280;49531;-34.520;150.798;2024-02-23T08:36:37;99918.56;;;29.68;56.51
63395;BME280;49531;-34.520;150.798;2024-02-23T08:39:04;99931.63;;;29.71;56.45
63395;BME280;49531;-34.520;150.798;2024-02-23T08:41:31;99909.59;;;29.59;56.35
63395;BME280;49531;-34.520;150.798;2024-02-23T08:43:58;99933.00;;;29.65;56.29
63395;BME280;49531;-34.520;150.798;2024-02-23T08:46:25;99944.94;;;29.69;56.12
63395;BME280;49531;-34.520;150.798;2024-02-23T08:48:52;99936.69;;;29.69;56.15
63395;BME280;49531;-34.520;150.798;2024-02-23T08:51:20;99933.47;;;29.67;56.27
63395;BME280;49531;-34.520;150.798;2024-02-23T08:53:47;99900.75;;;29.66;56.30
63395;BME280;49531;-34.520;150.798;2024-02-23T08:56:14;99902.25;;;29.63;56.19
63395;BME280;49531;-34.520;150.798;2024-02-23T08:58:42;99925.41;;;29.62;56.28
63395;BME280;49531;-34.520;150.798;2024-02-23T09:01:09;99925.31;;;29.59;56.59
63395;BME280;49531;-34.520;150.798;2024-02-23T09:03:36;99897.44;;;29.60;56.47
63395;BME280;49531;-34.520;150.798;2024-02-23T09:06:04;99912.34;;;29.59;56.56
63395;BME280;49531;-34.520;150.798;2024-02-23T09:08:31;99925.53;;;29.53;56.58
63395;BME280;49531;-34.520;150.798;2024-02-23T09:10:58;99923.13;;;29.52;56.37
63395;BME280;49531;-34.520;150.798;2024-02-23T09:13:25;99945.13;;;29.52;56.27
63395;BME280;49531;-34.520;150.798;2024-02-23T09:15:53;99971.06;;;29.51;56.29
63395;BME280;49531;-34.520;150.798;2024-02-23T09:18:21;99966.78;;;29.41;56.51
63395;BME280;49531;-34.520;150.798;2024-02-23T09:20:48;99968.84;;;29.44;56.50
63395;BME280;49531;-34.520;150.798;2024-02-23T09:23:15;99966.63;;;29.38;56.54
63395;BME280;49531;-34.520;150.798;2024-02-23T09:25:42;99980.38;;;29.38;56.57
63395;BME280;49531;-34.520;150.798;2024-02-23T09:28:09;99984.38;;;29.40;56.47
63395;BME280;49531;-34.520;150.798;2024-02-23T09:30:37;99977.34;;;29.31;56.45
63395;BME280;49531;-34.520;150.798;2024-02-23T09:33:05;100002.59;;;29.33;56.30
63395;BME280;49531;-34.520;150.798;2024-02-23T09:35:32;100022.19;;;29.31;56.51
63395;BME280;49531;-34.520;150.798;2024-02-23T09:37:59;100034.19;;;29.27;56.38
63395;BME280;49531;-34.520;150.798;2024-02-23T09:40:26;100048.94;;;29.22;56.33
63395;BME280;49531;-34.520;150.798;2024-02-23T09:42:57;100063.97;;;29.25;56.26
63395;BME280;49531;-34.520;150.798;2024-02-23T09:45:29;100088.16;;;29.19;56.37
63395;BME280;49531;-34.520;150.798;2024-02-23T09:47:57;100114.84;;;29.18;56.20
63395;BME280;49531;-34.520;150.798;2024-02-23T09:50:25;100108.06;;;29.16;56.38
63395;BME280;49531;-34.520;150.798;2024-02-23T09:52:52;100097.25;;;29.11;56.38
63395;BME280;49531;-34.520;150.798;2024-02-23T09:55:23;100116.66;;;29.14;56.30
63395;BME280;49531;-34.520;150.798;2024-02-23T09:57:55;100125.25;;;29.13;56.16
63395;BME280;49531;-34.520;150.798;2024-02-23T10:00:23;100144.81;;;29.11;55.98
63395;BME280;49531;-34.520;150.798;2024-02-23T10:02:50;100161.19;;;29.08;55.95
63395;BME280;49531;-34.520;150.798;2024-02-23T10:05:18;100157.47;;;29.04;55.94
63395;BME280;49531;-34.520;150.798;2024-02-23T10:07:45;100145.00;;;29.06;56.13
63395;BME280;49531;-34.520;150.798;2024-02-23T10:10:13;100158.28;;;29.04;55.68
63395;BME280;49531;-34.520;150.798;2024-02-23T10:12:40;100155.53;;;29.04;55.67
63395;BME280;49531;-34.520;150.798;2024-02-23T10:15:07;100129.50;;;29.02;55.57
63395;BME280;49531;-34.520;150.798;2024-02-23T10:17:35;100125.81;;;28.98;55.36
63395;BME280;49531;-34.520;150.798;2024-02-23T10:20:02;100115.00;;;28.93;55.36
63395;BME280;49531;-34.520;150.798;2024-02-23T10:22:32;100127.47;;;28.90;55.29
63395;BME280;49531;-34.520;150.798;2024-02-23T10:25:01;100143.00;;;28.86;55.30
63395;BME280;49531;-34.520;150.798;2024-02-23T10:27:28;100168.53;;;28.86;55.45
63395;BME280;49531;-34.520;150.798;2024-02-23T10:29:55;100200.41;;;28.87;55.35
63395;BME280;49531;-34.520;150.798;2024-02-23T10:32:23;100199.63;;;28.78;55.36
63395;BME280;49531;-34.520;150.798;2024-02-23T10:34:53;100204.97;;;28.75;55.45
63395;BME280;49531;-34.520;150.798;2024-02-23T10:37:23;100243.94;;;28.77;55.73
63395;BME280;49531;-34.520;150.798;2024-02-23T10:39:55;100258.81;;;28.76;55.64
63395;BME280;49531;-34.520;150.798;2024-02-23T10:42:28;100257.38;;;28.70;55.50
63395;BME280;49531;-34.520;150.798;2024-02-23T10:44:58;100269.31;;;28.74;55.42
63395;BME280;49531;-34.520;150.798;2024-02-23T10:47:28;100278.38;;;28.74;55.54
63395;BME280;49531;-34.520;150.798;2024-02-23T10:50:01;100277.56;;;28.74;55.24
63395;BME280;49531;-34.520;150.798;2024-02-23T10:52:29;100280.66;;;28.64;55.52
63395;BME280;49531;-34.520;150.798;2024-02-23T10:54:58;100325.44;;;28.64;55.50
63395;BME280;49531;-34.520;150.798;2024-02-23T10:57:27;100330.44;;;28.62;55.67
63395;BME280;49531;-34.520;150.798;2024-02-23T10:59:55;100332.06;;;28.63;55.50
63395;BME280;49531;-34.520;150.798;2024-02-23T11:02:23;100305.06;;;28.65;55.24
63395;BME280;49531;-34.520;150.798;2024-02-23T11:04:56;100300.84;;;28.68;55.26
63395;BME280;49531;-34.520;150.798;2024-02-23T11:07:24;100323.00;;;28.63;55.47
63395;BME280;49531;-34.520;150.798;2024-02-23T11:09:58;100336.75;;;28.63;55.27
63395;BME280;49531;-34.520;150.798;2024-02-23T11:12:28;100329.47;;;28.58;55.33
63395;BME280;49531;-34.520;150.798;2024-02-23T11:15:00;100304.91;;;28.44;55.37
63395;BME280;49531;-34.520;150.798;2024-02-23T11:17:29;100315.56;;;28.54;55.52
63395;BME280;49531;-34.520;150.798;2024-02-23T11:19:56;100327.22;;;28.51;55.61
63395;BME280;49531;-34.520;150.798;2024-02-23T11:22:34;100358.09;;;28.48;55.45
63395;BME280;49531;-34.520;150.798;2024-02-23T11:25:06;100367.47;;;28.47;55.67
63395;BME280;49531;-34.520;150.798;2024-02-23T11:27:38;100361.97;;;28.47;55.51
63395;BME280;49531;-34.520;150.798;2024-02-23T11:30:10;100353.22;;;28.45;55.59
63395;BME280;49531;-34.520;150.798;2024-02-23T11:32:43;100374.41;;;28.45;55.24
63395;BME280;49531;-34.520;150.798;2024-02-23T11:35:13;100368.75;;;28.41;55.63
63395;BME280;49531;-34.520;150.798;2024-02-23T11:40:33;100351.78;;;28.39;55.36
63395;BME280;49531;-34.520;150.798;2024-02-23T11:43:00;100340.47;;;28.32;55.45
63395;BME280;49531;-34.520;150.798;2024-02-23T11:45:31;100340.16;;;28.25;55.35
63395;BME280;49531;-34.520;150.798;2024-02-23T11:47:58;100363.59;;;28.31;55.33
63395;BME280;49531;-34.520;150.798;2024-02-23T11:50:25;100357.28;;;28.31;55.30
63395;BME280;49531;-34.520;150.798;2024-02-23T11:52:52;100350.66;;;28.23;55.09
63395;BME280;49531;-34.520;150.798;2024-02-23T11:55:20;100379.59;;;28.29;55.06
63395;BME280;49531;-34.520;150.798;2024-02-23T11:57:50;100404.78;;;28.23;55.25
63395;BME280;49531;-34.520;150.798;2024-02-23T12:00:18;100436.28;;;28.25;55.21
63395;BME280;49531;-34.520;150.798;2024-02-23T12:02:45;100470.16;;;28.20;55.18
63395;BME280;49531;-34.520;150.798;2024-02-23T12:05:17;100489.84;;;28.14;55.12
63395;BME280;49531;-34.520;150.798;2024-02-23T12:07:44;100504.06;;;28.16;55.20
63395;BME280;49531;-34.520;150.798;2024-02-23T12:10:11;100500.84;;;28.14;55.27
63395;BME280;49531;-34.520;150.798;2024-02-23T12:12:40;100487.41;;;28.12;55.19
63395;BME280;49531;-34.520;150.798;2024-02-23T12:15:07;100470.63;;;28.14;55.12
63395;BME280;49531;-34.520;150.798;2024-02-23T12:17:45;100457.53;;;28.11;55.09
63395;BME280;49531;-34.520;150.798;2024-02-23T12:20:13;100453.16;;;28.10;55.11
63395;BME280;49531;-34.520;150.798;2024-02-23T12:22:43;100441.53;;;28.13;54.50
63395;BME280;49531;-34.520;150.798;2024-02-23T12:25:12;100420.69;;;28.12;54.40
63395;BME280;49531;-34.520;150.798;2024-02-23T12:27:39;100396.00;;;28.12;54.68
63395;BME280;49531;-34.520;150.798;2024-02-23T12:30:13;100391.59;;;28.02;54.91
63395;BME280;49531;-34.520;150.798;2024-02-23T12:32:40;100413.56;;;28.02;54.62
63395;BME280;49531;-34.520;150.798;2024-02-23T12:35:10;100445.88;;;27.97;54.73